Time;durP1;ratioP1;P1;durP2;ratioP2;P2;SDS_P1;SDS_P2;PMS_P1;PMS_P2;Temp;Humidity;BMP_temperature;BMP_pressure;BME280_temperature;BME280_humidity;BME280_pressure;Samples;Min_cycle;Max_cycle;Signal;HPM_P1;HPM_P2
2023/08/20 00:00:14;;;;;;;12.80;11.60;;;;;;;23.16;86.61;96061.50;5039274;28;20281;-80
2023/08/20 00:02:41;;;;;;;13.05;11.18;;;;;;;23.08;87.44;96064.41;5058529;28;20186;-80
2023/08/20 00:05:07;;;;;;;12.20;11.10;;;;;;;23.10;86.99;96062.34;5027847;28;20182;-81
2023/08/20 00:07:33;;;;;;;13.23;11.70;;;;;;;23.11;87.80;96058.66;5047873;28;20210;-80
2023/08/20 00:09:58;;;;;;;12.73;11.50;;;;;;;23.11;87.38;96048.06;5052256;28;20189;-81
2023/08/20 00:12:25;;;;;;;13.55;11.32;;;;;;;23.11;86.85;96059.47;5051952;28;20260;-81
2023/08/20 00:14:58;;;;;;;13.98;11.32;;;;;;;23.10;86.60;96057.03;5070262;28;20631;-80
2023/08/20 00:17:27;;;;;;;12.75;11.43;;;;;;;23.08;87.35;96048.50;5040138;28;20569;-80
2023/08/20 00:19:55;;;;;;;16.17;11.13;;;;;;;23.00;87.78;96054.84;5057001;28;20190;-80
2023/08/20 00:22:24;;;;;;;15.45;10.82;;;;;;;23.03;87.63;96050.97;5054696;28;20202;-81
2023/08/20 00:24:52;;;;;;;13.63;10.80;;;;;;;23.00;87.37;96051.41;5033206;28;20657;-82
2023/08/20 00:27:17;;;;;;;13.88;11.70;;;;;;;22.97;87.25;96054.44;5047557;28;20672;-80
2023/08/20 00:29:43;;;;;;;12.95;11.65;;;;;;;22.98;87.31;96054.28;5044420;28;20206;-80
2023/08/20 00:32:08;;;;;;;12.18;11.00;;;;;;;22.94;87.05;96058.34;5048645;28;20688;-80
2023/08/20 00:34:34;;;;;;;13.27;11.85;;;;;;;22.91;87.26;96048.19;5057905;28;20185;-80
2023/08/20 00:37:00;;;;;;;12.23;10.82;;;;;;;22.86;87.26;96051.47;5044072;28;20202;-80
2023/08/20 00:39:25;;;;;;;13.63;11.25;;;;;;;22.85;87.62;96060.44;5043765;28;20281;-81
2023/08/20 00:41:50;;;;;;;12.05;10.90;;;;;;;22.83;87.42;96061.66;5058657;28;20540;-80
2023/08/20 00:44:16;;;;;;;12.40;11.10;;;;;;;22.82;87.14;96067.97;5042282;28;20249;-80
2023/08/20 00:46:41;;;;;;;12.30;10.98;;;;;;;22.78;86.89;96064.91;5055969;28;20615;-81
2023/08/20 00:49:06;;;;;;;17.60;11.68;;;;;;;22.79;86.58;96061.28;5053688;28;20570;-80
2023/08/20 00:51:33;;;;;;;12.85;11.55;;;;;;;22.78;86.66;96062.25;5063097;28;20570;-80
2023/08/20 00:53:58;;;;;;;11.82;10.63;;;;;;;22.75;86.67;96065.34;5060411;28;20186;-81
2023/08/20 00:56:23;;;;;;;13.68;11.27;;;;;;;22.76;86.71;96071.44;5061171;28;20190;-80
2023/08/20 00:58:49;;;;;;;14.02;12.32;;;;;;;22.79;86.74;96076.31;5059028;28;20709;-80
2023/08/20 01:01:15;;;;;;;12.13;10.90;;;;;;;22.73;87.24;96067.41;5062684;28;20303;-80
2023/08/20 01:03:40;;;;;;;12.52;11.43;;;;;;;22.73;87.60;96069.22;5065005;28;20181;-80
2023/08/20 01:06:21;;;;;;;13.30;11.82;;;;;;;22.73;88.18;96069.22;5067156;28;20553;-80
2023/08/20 01:08:47;;;;;;;13.27;11.98;;;;;;;22.74;88.43;96061.06;5053928;28;20268;-81
2023/08/20 01:11:18;;;;;;;13.40;12.00;;;;;;;22.70;87.82;96065.16;5041566;28;20182;-80
2023/08/20 01:13:43;;;;;;;13.20;12.00;;;;;;;22.66;88.09;96068.44;5043894;28;21018;-81
2023/08/20 01:16:08;;;;;;;13.40;12.13;;;;;;;22.65;88.60;96070.28;5043130;28;20209;-80
2023/08/20 01:18:34;;;;;;;14.43;11.75;;;;;;;22.64;88.12;96062.56;5060571;28;20297;-81
2023/08/20 01:21:03;;;;;;;12.55;10.73;;;;;;;22.64;87.85;96062.56;5070218;28;20855;-81
2023/08/20 01:23:46;;;;;;;12.20;11.00;;;;;;;22.61;88.32;96061.13;5052535;28;20616;-80
2023/08/20 01:26:21;;;;;;;13.68;12.23;;;;;;;22.58;89.20;96066.84;5048542;28;20672;-81
2023/08/20 01:28:46;;;;;;;13.18;11.98;;;;;;;22.57;89.34;96062.56;5045879;28;20229;-80
2023/08/20 01:31:12;;;;;;;11.95;10.75;;;;;;;22.53;88.72;96061.38;5045607;28;20205;-80
2023/08/20 01:33:37;;;;;;;13.05;11.75;;;;;;;22.47;88.08;96062.22;5041450;28;20249;-81
2023/08/20 01:36:09;;;;;;;13.40;11.52;;;;;;;22.43;87.82;96063.63;5056547;28;20193;-80
2023/08/20 01:38:34;;;;;;;12.23;11.02;;;;;;;22.42;87.80;96057.53;5060094;28;20221;-80
2023/08/20 01:41:00;;;;;;;12.10;11.00;;;;;;;22.40;87.83;96064.06;5062634;28;20293;-81
2023/08/20 01:43:25;;;;;;;12.60;10.77;;;;;;;22.37;87.15;96062.66;5064814;28;20193;-81
2023/08/20 01:45:50;;;;;;;14.00;10.70;;;;;;;22.38;87.09;96069.56;5050739;28;20186;-80
2023/08/20 01:48:16;;;;;;;12.52;11.30;;;;;;;22.33;87.43;96067.53;5052669;28;20615;-82
2023/08/20 01:50:41;;;;;;;11.57;10.48;;;;;;;22.30;88.30;96065.31;5055297;28;20185;-80
2023/08/20 01:53:06;;;;;;;14.70;10.70;;;;;;;22.29;87.93;96066.34;5074253;28;20197;-79
2023/08/20 01:55:32;;;;;;;12.88;11.10;;;;;;;22.28;87.82;96070.00;5057283;28;20705;-81
2023/08/20 01:57:57;;;;;;;12.27;10.90;;;;;;;22.27;88.50;96068.38;5057355;28;20679;-80
2023/08/20 02:00:22;;;;;;;13.57;12.02;;;;;;;22.25;88.46;96067.75;5036767;28;20277;-81
2023/08/20 02:02:48;;;;;;;13.48;12.07;;;;;;;22.23;88.69;96067.16;5051149;28;20230;-81
2023/08/20 02:05:13;;;;;;;14.07;12.57;;;;;;;;;;5064130;28;20215;-81
2023/08/20 02:07:39;;;;;;;12.57;11.35;;;;;;;22.24;89.40;96070.63;5044623;28;20221;-80
2023/08/20 02:10:05;;;;;;;16.73;12.07;;;;;;;22.18;89.77;96072.28;5026142;28;20195;-81
2023/08/20 02:12:30;;;;;;;15.32;13.73;;;;;;;22.18;90.30;96066.97;5040309;28;20212;-80
2023/08/20 02:14:55;;;;;;;13.27;11.95;;;;;;;22.19;89.93;96081.84;5056871;28;20194;-80
2023/08/20 02:17:20;;;;;;;14.77;13.20;;;;;;;22.18;90.57;96068.81;5041549;28;20583;-81
2023/08/20 02:19:46;;;;;;;15.38;13.68;;;;;;;22.17;91.78;96070.63;5061222;28;20208;-80
2023/08/20 02:22:11;;;;;;;14.60;13.15;;;;;;;22.20;90.90;96080.81;5047097;28;20238;-79
2023/08/20 02:24:37;;;;;;;14.30;12.82;;;;;;;22.20;91.60;96078.16;5049416;28;20239;-80
2023/08/20 02:27:02;;;;;;;14.77;13.18;;;;;;;22.19;91.87;96076.53;5052356;28;20239;-80
2023/08/20 02:29:28;;;;;;;14.07;12.63;;;;;;;22.15;92.97;96071.84;5053865;28;20188;-81
2023/08/20 02:31:53;;;;;;;15.63;12.88;;;;;;;22.15;92.29;96062.09;5073785;28;20280;-80
2023/08/20 02:34:18;;;;;;;14.68;13.27;;;;;;;22.13;93.78;96064.13;5040097;28;20196;-80
2023/08/20 02:36:44;;;;;;;15.80;14.23;;;;;;;22.12;93.67;96065.16;5053642;28;20889;-81
2023/08/20 02:39:09;;;;;;;16.50;13.23;;;;;;;22.12;94.17;96070.44;5052834;28;20201;-80
2023/08/20 02:41:35;;;;;;;14.25;12.85;;;;;;;22.10;94.00;96066.38;5051142;28;20216;-81
2023/08/20 02:44:01;;;;;;;15.20;13.75;;;;;;;22.05;94.84;96048.47;5047045;28;20189;-81
2023/08/20 02:46:26;;;;;;;18.83;14.65;;;;;;;22.09;94.02;96056.84;5060281;28;20236;-80
2023/08/20 02:48:52;;;;;;;16.05;14.38;;;;;;;22.03;94.61;96058.44;5042137;28;20698;-80
2023/08/20 02:51:17;;;;;;;19.08;13.90;;;;;;;22.07;94.35;96051.72;5055730;28;20178;-80
2023/08/20 02:53:43;;;;;;;14.80;13.27;;;;;;;22.03;93.90;96056.59;5055585;28;20656;-80
2023/08/20 02:56:08;;;;;;;14.10;12.85;;;;;;;22.00;93.46;96048.28;5057144;28;20185;-80
2023/08/20 02:58:33;;;;;;;15.68;12.52;;;;;;;22.00;93.01;96037.69;5042531;28;20206;-80
2023/08/20 03:00:59;;;;;;;15.35;13.35;;;;;;;21.91;92.99;96038.91;5031748;28;20199;-82
2023/08/20 03:03:24;;;;;;;14.45;13.13;;;;;;;21.87;92.79;96035.88;5039665;28;20205;-79
2023/08/20 03:05:50;;;;;;;16.70;13.02;;;;;;;21.82;93.05;96037.50;5016884;28;20284;-80
2023/08/20 03:08:15;;;;;;;13.65;12.45;;;;;;;21.76;92.55;96034.69;5073734;28;20232;-81
2023/08/20 03:10:40;;;;;;;14.88;12.30;;;;;;;21.74;92.52;96042.00;5068646;28;20181;-81
2023/08/20 03:13:06;;;;;;;13.98;12.68;;;;;;;21.70;92.83;96038.13;5068121;28;20232;-80
2023/08/20 03:15:31;;;;;;;14.32;12.80;;;;;;;21.66;92.86;96042.22;5046257;28;20220;-79
2023/08/20 03:17:56;;;;;;;14.48;12.95;;;;;;;21.62;92.65;96038.34;5059800;28;20237;-80
2023/08/20 03:20:22;;;;;;;13.77;11.75;;;;;;;21.62;92.97;96027.78;5055628;28;20189;-81
2023/08/20 03:22:47;;;;;;;14.93;13.38;;;;;;;21.61;93.08;96030.63;5069783;28;20188;-80
2023/08/20 03:25:12;;;;;;;13.23;12.02;;;;;;;21.59;93.04;96027.38;5065947;28;20190;-80
2023/08/20 03:27:38;;;;;;;14.23;12.80;;;;;;;21.59;92.89;96036.13;5030919;28;20690;-81
2023/08/20 03:30:04;;;;;;;15.52;13.55;;;;;;;21.61;93.26;96039.38;5044582;28;20198;-80
2023/08/20 03:32:30;;;;;;;17.30;14.38;;;;;;;21.59;94.11;96037.94;5060541;28;20196;-81
2023/08/20 03:34:55;;;;;;;13.82;12.40;;;;;;;21.59;93.78;96038.75;5044513;28;20209;-81
2023/08/20 03:37:21;;;;;;;13.98;12.57;;;;;;;21.59;94.18;96033.47;5030923;28;20229;-80
2023/08/20 03:39:47;;;;;;;14.98;13.43;;;;;;;21.56;93.99;96028.63;5033315;28;20183;-80
2023/08/20 03:42:12;;;;;;;14.55;13.15;;;;;;;21.58;94.16;96029.22;5035401;28;20249;-79
2023/08/20 03:44:37;;;;;;;14.55;12.93;;;;;;;21.50;94.49;96026.78;5069786;28;20224;-80
2023/08/20 03:47:03;;;;;;;14.05;12.55;;;;;;;21.45;94.62;96023.91;5072617;28;20229;-80
2023/08/20 03:49:28;;;;;;;13.27;11.98;;;;;;;21.41;94.50;96030.63;5041789;28;20201;-80
2023/08/20 03:51:53;;;;;;;13.70;12.38;;;;;;;21.36;94.56;96033.06;5055969;28;20835;-81
2023/08/20 03:54:20;;;;;;;13.98;12.68;;;;;;;21.36;94.55;96035.69;5052573;28;20656;-81
2023/08/20 03:56:45;;;;;;;14.65;13.35;;;;;;;21.40;94.34;96034.31;5031432;28;20558;-80
2023/08/20 03:59:11;;;;;;;14.00;11.70;;;;;;;21.43;94.08;96039.97;5062848;28;20196;-81
2023/08/20 04:01:36;;;;;;;13.65;12.25;;;;;;;21.43;94.28;96039.97;5060584;28;20202;-81
2023/08/20 04:04:03;;;;;;;13.20;12.00;;;;;;;21.45;93.63;96039.78;5025651;28;20278;-81
2023/08/20 04:06:28;;;;;;;13.75;12.32;;;;;;;21.31;94.97;96040.81;5037357;28;20190;-81
2023/08/20 04:08:53;;;;;;;16.25;12.80;;;;;;;21.28;96.44;96051.75;5035261;28;20210;-81
2023/08/20 04:11:19;;;;;;;16.48;12.43;;;;;;;21.36;95.60;96041.81;5052849;28;20185;-80
2023/08/20 04:13:45;;;;;;;14.57;12.63;;;;;;;21.37;96.15;96051.34;5038610;28;20186;-80
2023/08/20 04:16:10;;;;;;;14.35;12.70;;;;;;;21.39;96.16;96062.56;5044090;28;20178;-81
2023/08/20 04:18:36;;;;;;;14.20;12.73;;;;;;;21.43;95.59;96060.31;5027619;28;20278;-80
2023/08/20 04:21:01;;;;;;;20.35;13.70;;;;;;;21.42;95.69;96079.81;5062873;28;20206;-80
2023/08/20 04:23:26;;;;;;;15.15;13.63;;;;;;;21.40;95.51;96071.28;5048784;28;20192;-80
2023/08/20 04:25:52;;;;;;;14.02;12.63;;;;;;;21.38;95.28;96073.28;5051467;28;20190;-80
2023/08/20 04:28:17;;;;;;;14.77;13.27;;;;;;;21.32;95.75;96082.03;5054458;28;20208;-81
2023/08/20 04:30:43;;;;;;;14.80;13.40;;;;;;;21.33;96.11;96081.84;5053132;28;20259;-81
2023/08/20 04:33:09;;;;;;;15.07;13.43;;;;;;;21.30;96.80;96081.44;5050525;28;20177;-82
2023/08/20 04:35:34;;;;;;;15.95;13.23;;;;;;;21.32;97.21;96074.13;5047204;28;20555;-82
2023/08/20 04:37:59;;;;;;;14.85;13.52;;;;;;;21.41;96.30;96057.06;5074741;28;20206;-82
2023/08/20 04:40:25;;;;;;;14.90;12.52;;;;;;;21.56;94.90;96054.22;5039595;28;20193;-82
2023/08/20 04:42:50;;;;;;;13.27;12.07;;;;;;;21.57;94.67;96047.91;5052656;28;20273;-81
2023/08/20 04:45:18;;;;;;;14.60;12.40;;;;;;;21.56;94.32;96059.50;5064011;28;20643;-82
2023/08/20 04:47:43;;;;;;;15.05;13.48;;;;;;;21.50;94.83;96055.84;5060866;28;20203;-80
2023/08/20 04:50:08;;;;;;;14.75;13.35;;;;;;;21.68;93.67;96061.31;5061849;28;20794;-81
2023/08/20 04:52:34;;;;;;;14.48;12.95;;;;;;;21.68;93.15;96071.91;5064889;28;20205;-81
2023/08/20 04:55:01;;;;;;;14.45;12.82;;;;;;;21.77;93.11;96065.38;5033676;28;20873;-81
2023/08/20 04:57:26;;;;;;;16.83;13.50;;;;;;;21.86;91.81;96071.28;5052243;28;20751;-81
2023/08/20 04:59:51;;;;;;;15.85;14.35;;;;;;;21.97;91.79;96073.28;5070839;28;20467;-80
2023/08/20 05:02:17;;;;;;;17.60;13.85;;;;;;;21.95;92.98;96069.22;5056163;28;20209;-82
2023/08/20 05:04:42;;;;;;;17.50;13.80;;;;;;;22.07;92.46;96064.94;5042495;28;20655;-81
2023/08/20 05:07:07;;;;;;;14.93;13.50;;;;;;;22.68;89.04;96061.91;5060671;28;20602;-81
2023/08/20 05:09:33;;;;;;;13.27;12.02;;;;;;;23.51;85.57;96066.34;5060535;28;20185;-82
2023/08/20 05:11:59;;;;;;;14.35;11.70;;;;;;;24.24;81.44;96071.81;5057583;28;20178;-81
2023/08/20 05:14:24;;;;;;;15.30;11.68;;;;;;;24.55;77.00;96084.97;5054822;28;20263;-82
2023/08/20 05:16:49;;;;;;;14.68;12.20;;;;;;;24.67;77.49;96084.25;5049204;28;20217;-82
2023/08/20 05:19:15;;;;;;;13.13;11.82;;;;;;;24.76;77.78;96080.25;5048161;28;20722;-83
2023/08/20 05:21:40;;;;;;;13.52;12.20;;;;;;;24.43;79.78;96073.47;5061702;28;20211;-82
2023/08/20 05:24:05;;;;;;;12.68;11.38;;;;;;;24.36;80.49;96067.44;5041606;28;20201;-81
2023/08/20 05:26:31;;;;;;;14.15;11.90;;;;;;;24.33;79.24;96083.81;5054781;28;20190;-82
2023/08/20 05:28:56;;;;;;;12.00;10.70;;;;;;;24.43;79.48;96089.41;5041784;28;20218;-81
2023/08/20 05:31:21;;;;;;;12.70;11.30;;;;;;;24.44;79.21;96080.41;5042888;28;20707;-81
2023/08/20 05:33:48;;;;;;;12.68;11.40;;;;;;;24.42;79.91;96087.78;5044432;28;20225;-81
2023/08/20 05:36:14;;;;;;;15.07;12.45;;;;;;;23.95;82.36;96090.06;5046582;28;20273;-81
2023/08/20 05:38:39;;;;;;;12.63;11.35;;;;;;;23.81;83.69;96093.03;5048857;28;20212;-81
2023/08/20 05:41:05;;;;;;;12.55;11.25;;;;;;;23.86;83.72;96088.72;5036111;28;20640;-81
2023/08/20 05:43:30;;;;;;;13.18;11.57;;;;;;;24.02;83.23;96090.78;5054219;28;20272;-81
2023/08/20 05:45:55;;;;;;;15.32;11.32;;;;;;;24.02;82.70;96097.94;5053412;28;20708;-81
2023/08/20 05:48:21;;;;;;;12.88;11.75;;;;;;;24.15;82.07;96097.03;5034960;28;20636;-81
2023/08/20 05:50:46;;;;;;;12.65;11.35;;;;;;;24.25;81.72;96095.47;5066650;28;20692;-81
2023/08/20 05:53:11;;;;;;;12.05;10.73;;;;;;;24.30;81.21;96090.34;5031424;28;20243;-81
2023/08/20 05:55:37;;;;;;;13.65;12.02;;;;;;;24.44;80.21;96098.19;5045552;28;20210;-81
2023/08/20 05:58:03;;;;;;;11.68;10.57;;;;;;;24.51;79.42;96098.91;5044489;28;21112;-82
2023/08/20 06:00:28;;;;;;;14.40;11.82;;;;;;;24.64;78.70;96106.72;5057450;28;20305;-81
2023/08/20 06:02:53;;;;;;;11.63;10.57;;;;;;;24.88;77.55;96104.19;5055016;28;20189;-81
2023/08/20 06:05:19;;;;;;;12.75;10.85;;;;;;;25.02;76.84;96108.31;5053766;28;20729;-81
2023/08/20 06:07:44;;;;;;;12.63;10.98;;;;;;;25.36;76.67;96114.84;5059257;28;20245;-81
2023/08/20 06:10:09;;;;;;;12.60;10.77;;;;;;;25.54;74.82;96111.31;5043213;28;20710;-81
2023/08/20 06:12:35;;;;;;;13.60;10.88;;;;;;;25.64;74.47;96116.88;5046165;28;20183;-81
2023/08/20 06:15:00;;;;;;;11.05;9.95;;;;;;;25.92;73.99;96118.91;5047657;28;20219;-81
2023/08/20 06:17:25;;;;;;;12.85;10.20;;;;;;;26.11;72.52;96117.75;5041684;28;20205;-81
2023/08/20 06:19:51;;;;;;;11.45;10.23;;;;;;;26.31;72.37;96114.75;5034403;28;20192;-80
2023/08/20 06:22:16;;;;;;;11.57;10.40;;;;;;;26.16;69.20;96114.41;5040688;28;20272;-82
2023/08/20 06:24:41;;;;;;;11.45;9.90;;;;;;;26.29;69.29;96119.50;5038629;28;20181;-81
2023/08/20 06:27:07;;;;;;;11.05;8.80;;;;;;;26.37;68.80;96127.13;5037307;28;20202;-80
2023/08/20 06:29:32;;;;;;;11.32;8.27;;;;;;;26.35;69.08;96128.41;5037753;28;20221;-81
2023/08/20 06:31:57;;;;;;;9.90;9.00;;;;;;;26.26;69.80;96131.44;5039374;28;20182;-81
2023/08/20 06:34:23;;;;;;;10.80;9.70;;;;;;;26.24;69.50;96136.19;5052283;28;20190;-81
2023/08/20 06:36:49;;;;;;;10.63;9.63;;;;;;;26.15;70.26;96134.91;5045111;28;20217;-81
2023/08/20 06:39:15;;;;;;;9.98;8.90;;;;;;;26.34;68.65;96137.44;5047401;28;20183;-80
2023/08/20 06:41:40;;;;;;;10.32;9.23;;;;;;;26.19;68.39;96136.06;5047213;28;20199;-81
2023/08/20 06:44:06;;;;;;;14.48;10.05;;;;;;;26.37;67.41;96132.47;5048920;28;20182;-82
2023/08/20 06:46:32;;;;;;;10.50;9.43;;;;;;;26.72;65.20;96140.44;5052800;28;20237;-81
2023/08/20 06:48:57;;;;;;;9.82;8.40;;;;;;;27.84;60.75;96141.81;5051804;28;20189;-81
2023/08/20 06:51:22;;;;;;;12.57;8.50;;;;;;;28.73;56.71;96145.28;5047801;28;20214;-82
2023/08/20 06:53:48;;;;;;;12.43;8.05;;;;;;;29.30;54.67;96136.06;5057531;28;20186;-80
2023/08/20 06:56:14;;;;;;;9.10;7.40;;;;;;;28.90;54.28;96150.63;5034402;28;20257;-81
2023/08/20 06:58:40;;;;;;;8.35;7.55;;;;;;;29.32;53.64;96147.31;5047483;28;20228;-81
2023/08/20 07:01:08;;;;;;;11.10;7.80;;;;;;;29.42;53.31;96146.63;5042566;28;20211;-81
2023/08/20 07:03:37;;;;;;;9.65;7.22;;;;;;;29.69;52.75;96152.03;5026970;28;20186;-81
2023/08/20 07:06:02;;;;;;;8.55;7.72;;;;;;;28.95;54.80;96156.00;5027163;28;20197;-81
2023/08/20 07:08:28;;;;;;;12.05;8.02;;;;;;;28.65;55.59;96150.25;5029740;28;20201;-82
2023/08/20 07:10:53;;;;;;;8.88;7.60;;;;;;;28.04;57.44;96150.13;5032402;28;20774;-81
2023/08/20 07:13:18;;;;;;;9.95;8.00;;;;;;;27.92;58.32;96144.06;5041261;28;20194;-83
2023/08/20 07:15:44;;;;;;;9.93;8.25;;;;;;;27.93;59.56;96146.50;5040539;28;20541;-81
2023/08/20 07:18:12;;;;;;;10.68;8.73;;;;;;;27.69;60.41;96153.00;5040328;28;20560;-82
2023/08/20 07:20:38;;;;;;;9.70;8.80;;;;;;;27.57;61.24;96157.59;5057144;28;20232;-81
2023/08/20 07:23:03;;;;;;;8.38;7.47;;;;;;;27.69;62.57;96161.03;5055286;28;20667;-81
2023/08/20 07:25:29;;;;;;;9.75;7.85;;;;;;;27.13;64.01;96159.16;5051403;28;20207;-81
2023/08/20 07:27:59;;;;;;;9.43;8.52;;;;;;;26.74;65.79;96153.53;5036756;28;20234;-81
2023/08/20 07:30:24;;;;;;;9.60;7.68;;;;;;;26.94;65.04;96163.78;5038488;28;20663;-80
2023/08/20 07:32:50;;;;;;;8.98;8.15;;;;;;;26.62;65.51;96166.88;5027501;28;20217;-81
2023/08/20 07:35:15;;;;;;;9.00;8.02;;;;;;;26.57;66.44;96166.75;5036339;28;20588;-81
2023/08/20 07:37:40;;;;;;;8.70;7.90;;;;;;;26.44;66.84;96174.97;5042037;28;20605;-80
2023/08/20 07:40:06;;;;;;;10.75;8.32;;;;;;;26.52;66.40;96171.97;5038021;28;20202;-80
2023/08/20 07:42:32;;;;;;;14.68;8.95;;;;;;;26.50;67.52;96174.03;5035556;28;20641;-81
2023/08/20 07:44:57;;;;;;;11.02;9.57;;;;;;;26.59;66.43;96177.16;5037343;28;20214;-80
2023/08/20 07:47:22;;;;;;;13.18;10.10;;;;;;;26.68;66.35;96179.25;5049184;28;20224;-80
2023/08/20 07:49:47;;;;;;;11.52;9.70;;;;;;;26.88;66.24;96186.06;5046563;28;20276;-81
2023/08/20 07:52:13;;;;;;;11.07;9.15;;;;;;;26.69;66.86;96178.22;5035604;28;20615;-80
2023/08/20 07:54:38;;;;;;;10.27;9.27;;;;;;;26.75;67.25;96174.59;5042692;28;20181;-80
2023/08/20 07:57:04;;;;;;;10.95;8.93;;;;;;;26.45;68.34;96171.28;5037950;28;20206;-81
2023/08/20 07:59:29;;;;;;;9.82;8.65;;;;;;;26.30;68.03;96173.56;5040460;28;20281;-81
2023/08/20 08:01:54;;;;;;;9.60;8.48;;;;;;;26.81;66.69;96184.31;5036145;28;20233;-79
2023/08/20 08:04:20;;;;;;;9.68;8.75;;;;;;;26.92;65.80;96177.34;5038039;28;20220;-80
2023/08/20 08:06:45;;;;;;;10.18;8.75;;;;;;;27.08;65.05;96170.50;5034045;28;20178;-80
2023/08/20 08:09:26;;;;;;;9.88;8.88;;;;;;;27.11;64.95;96170.03;5056325;28;20246;-82
2023/08/20 08:11:51;;;;;;;9.63;8.73;;;;;;;27.23;63.84;96184.16;5062186;28;20174;-82
2023/08/20 08:14:17;;;;;;;10.75;9.63;;;;;;;26.99;63.79;96183.38;5063869;28;20179;-81
2023/08/20 08:16:42;;;;;;;9.63;8.80;;;;;;;27.25;63.08;96184.72;5063887;28;20243;-80
2023/08/20 08:19:07;;;;;;;12.20;9.50;;;;;;;27.29;62.91;96180.50;5049833;28;20185;-79
2023/08/20 08:21:33;;;;;;;15.07;9.13;;;;;;;27.12;62.51;96184.16;5064841;28;20209;-80
2023/08/20 08:23:58;;;;;;;13.75;9.70;;;;;;;26.91;63.36;96177.59;5047978;28;20232;-81
2023/08/20 08:26:23;;;;;;;11.02;8.73;;;;;;;27.51;61.76;96185.22;5057783;28;20193;-81
2023/08/20 08:28:49;;;;;;;10.25;9.27;;;;;;;26.87;62.25;96184.44;5056807;28;20281;-80
2023/08/20 08:31:14;;;;;;;12.30;8.98;;;;;;;27.55;60.21;96194.34;5044823;28;20194;-82
2023/08/20 08:33:39;;;;;;;11.13;9.13;;;;;;;27.52;61.18;96182.28;5047887;28;20655;-81
2023/08/20 08:36:05;;;;;;;10.57;8.60;;;;;;;27.52;60.72;96192.16;5041700;28;20221;-82
2023/08/20 08:38:30;;;;;;;10.90;9.60;;;;;;;27.59;60.45;96192.81;5057786;28;20225;-79
2023/08/20 08:40:56;;;;;;;10.15;9.13;;;;;;;27.45;61.03;96186.16;5040629;28;20710;-80
2023/08/20 08:43:21;;;;;;;10.63;8.73;;;;;;;27.45;58.83;96189.63;5043664;28;20190;-79
2023/08/20 08:45:50;;;;;;;12.23;8.73;;;;;;;27.56;59.39;96198.63;5051092;28;20667;-81
2023/08/20 08:48:15;;;;;;;9.80;8.75;;;;;;;27.44;60.50;96195.19;5053584;28;20186;-80
2023/08/20 08:50:41;;;;;;;12.00;8.60;;;;;;;27.98;59.37;96196.47;5038801;28;20182;-80
2023/08/20 08:53:07;;;;;;;11.73;8.50;;;;;;;27.84;59.52;96195.19;5055739;28;20193;-79
2023/08/20 08:55:32;;;;;;;11.85;7.97;;;;;;;28.39;57.69;96195.28;5035516;28;20327;-79
2023/08/20 08:57:58;;;;;;;9.80;8.80;;;;;;;28.67;57.08;96190.88;5037135;28;20645;-81
2023/08/20 09:00:23;;;;;;;10.68;8.50;;;;;;;28.23;58.37;96199.56;5052661;28;20178;-79
2023/08/20 09:02:48;;;;;;;9.85;8.13;;;;;;;28.53;55.96;96206.44;5061822;28;20186;-80
2023/08/20 09:05:14;;;;;;;9.35;8.10;;;;;;;28.60;56.47;96212.44;5045096;28;20193;-80
2023/08/20 09:07:44;;;;;;;8.68;7.88;;;;;;;28.85;55.65;96209.31;5052298;28;20205;-81
2023/08/20 09:10:10;;;;;;;7.78;7.18;;;;;;;28.38;57.21;96206.22;5060531;28;20186;-80
2023/08/20 09:12:36;;;;;;;10.32;8.30;;;;;;;27.98;58.23;96211.66;5041702;28;20209;-82
2023/08/20 09:15:01;;;;;;;10.00;8.75;;;;;;;28.19;57.49;96205.63;5053490;28;20190;-80
2023/08/20 09:17:27;;;;;;;10.50;8.40;;;;;;;28.40;57.25;96207.59;5052243;28;20194;-81
2023/08/20 09:19:55;;;;;;;10.55;8.15;;;;;;;28.46;56.55;96208.50;5054087;28;20185;-82
2023/08/20 09:22:20;;;;;;;10.30;8.55;;;;;;;28.67;56.54;96199.72;5056860;28;20202;-80
2023/08/20 09:24:49;;;;;;;9.30;8.43;;;;;;;28.58;57.12;96201.19;5060621;28;20193;-80
2023/08/20 09:27:14;;;;;;;11.70;8.52;;;;;;;28.34;58.15;96205.09;5045363;28;20594;-80
2023/08/20 09:29:58;;;;;;;11.93;9.32;;;;;;;28.29;58.19;96205.81;5063994;28;20265;-81
2023/08/20 09:32:26;;;;;;;10.05;8.45;;;;;;;28.74;57.31;96204.88;5072831;28;20186;-81
2023/08/20 09:34:53;;;;;;;10.20;8.48;;;;;;;28.53;57.54;96205.63;5053615;28;20189;-81
2023/08/20 09:37:21;;;;;;;9.52;8.63;;;;;;;28.04;59.41;96211.53;5051621;28;20210;-81
2023/08/20 09:39:47;;;;;;;9.60;8.20;;;;;;;28.65;57.62;96215.19;5053931;28;20681;-80
2023/08/20 09:42:13;;;;;;;11.25;8.70;;;;;;;28.71;56.08;96213.38;5059729;28;20198;-80
2023/08/20 09:44:42;;;;;;;9.85;7.72;;;;;;;28.90;56.37;96211.28;5074112;28;20659;-79
2023/08/20 09:47:13;;;;;;;9.50;8.60;;;;;;;28.78;56.17;96211.34;5062783;28;20194;-80
2023/08/20 09:49:41;;;;;;;9.13;8.02;;;;;;;28.45;57.10;96214.91;5059805;28;20206;-81
2023/08/20 09:52:08;;;;;;;10.35;8.48;;;;;;;28.55;56.64;96207.03;5056920;28;20207;-81
2023/08/20 09:55:00;;;;;;;10.35;8.43;;;;;;;29.23;56.09;96221.03;5053803;28;20191;-80
2023/08/20 09:57:39;;;;;;;11.48;7.65;;;;;;;29.09;54.76;96214.47;5052297;28;20206;-80
2023/08/20 10:00:05;;;;;;;10.85;8.98;;;;;;;28.82;54.76;96220.50;5040437;28;20215;-79
2023/08/20 10:02:32;;;;;;;8.90;8.05;;;;;;;28.62;55.75;96222.88;5069958;28;20214;-80
2023/08/20 10:05:01;;;;;;;11.90;7.93;;;;;;;28.62;57.21;96221.00;5044375;28;20209;-81
2023/08/20 10:07:31;;;;;;;12.35;8.40;;;;;;;28.58;56.17;96216.41;5046834;28;20205;-80
2023/08/20 10:10:00;;;;;;;8.65;7.80;;;;;;;29.03;55.43;96222.41;5043673;28;20201;-81
2023/08/20 10:12:25;;;;;;;11.02;7.68;;;;;;;29.29;54.30;96218.19;5055137;28;20229;-81
2023/08/20 10:14:51;;;;;;;8.63;7.80;;;;;;;28.98;54.30;96211.66;5052135;28;20233;-82
2023/08/20 10:17:17;;;;;;;10.90;7.68;;;;;;;29.34;54.38;96212.09;5035466;28;20210;-80
2023/08/20 10:19:43;;;;;;;13.25;8.57;;;;;;;29.08;55.35;96213.66;5040283;28;20179;-80
2023/08/20 10:22:08;;;;;;;8.65;7.95;;;;;;;28.80;55.35;96211.91;5058537;28;20264;-81
2023/08/20 10:25:02;;;;;;;9.18;7.75;;;;;;;28.74;55.88;96215.56;5044652;28;20192;-80
2023/08/20 10:27:31;;;;;;;8.60;7.72;;;;;;;29.27;55.34;96224.84;5049718;28;20226;-79
2023/08/20 10:29:58;;;;;;;10.13;8.30;;;;;;;28.88;55.49;96216.03;5057172;28;20558;-80
2023/08/20 10:32:43;;;;;;;11.45;7.60;;;;;;;28.97;53.93;96220.72;5053970;28;20614;-80
2023/08/20 10:35:08;;;;;;;9.80;7.75;;;;;;;29.06;53.91;96218.44;5051284;28;20186;-81
2023/08/20 10:37:34;;;;;;;8.63;7.22;;;;;;;29.12;54.06;96220.13;5053027;28;20207;-81
2023/08/20 10:39:59;;;;;;;12.00;8.50;;;;;;;28.90;55.01;96220.13;5056214;28;20185;-79
2023/08/20 10:42:28;;;;;;;11.15;8.20;;;;;;;28.70;54.71;96217.09;5042536;28;20203;-81
2023/08/20 10:45:09;;;;;;;8.95;7.32;;;;;;;28.87;53.37;96207.19;5052945;28;20284;-80
2023/08/20 10:47:42;;;;;;;9.10;7.18;;;;;;;28.85;53.63;96211.97;5053262;28;20220;-80
2023/08/20 10:50:12;;;;;;;8.07;7.28;;;;;;;29.31;51.95;96215.25;5038716;28;20250;-81
2023/08/20 10:52:39;;;;;;;9.45;7.78;;;;;;;28.72;53.49;96215.03;5051635;28;20205;-80
2023/08/20 10:55:04;;;;;;;8.60;7.55;;;;;;;29.01;53.55;96213.03;5051476;28;20186;-80
2023/08/20 10:57:39;;;;;;;8.10;6.93;;;;;;;29.09;53.21;96209.94;5054021;28;20214;-80
2023/08/20 11:00:09;;;;;;;9.07;7.88;;;;;;;29.40;51.98;96210.28;5052241;28;20181;-80
2023/08/20 11:02:35;;;;;;;8.20;7.45;;;;;;;29.45;52.08;96210.34;5046461;28;20213;-80
2023/08/20 11:05:01;;;;;;;9.35;7.20;;;;;;;29.31;52.96;96209.91;5059022;28;20192;-81
2023/08/20 11:07:27;;;;;;;8.20;7.40;;;;;;;29.65;51.08;96210.59;5057192;28;20190;-82
2023/08/20 11:09:54;;;;;;;8.70;7.75;;;;;;;29.13;53.05;96207.56;5054097;28;20660;-81
2023/08/20 11:12:20;;;;;;;10.15;7.95;;;;;;;29.86;51.91;96200.88;5051738;28;20175;-80
2023/08/20 11:14:46;;;;;;;9.32;7.60;;;;;;;29.59;51.44;96203.56;5036330;28;20178;-79
2023/08/20 11:17:11;;;;;;;8.45;7.75;;;;;;;30.06;50.78;96202.97;5055847;28;20199;-80